Time;durP1;ratioP1;P1;durP2;ratioP2;P2;SDS_P1;SDS_P2;PMS_P1;PMS_P2;Temp;Humidity;BMP_temperature;BMP_pressure;BME280_temperature;BME280_humidity;BME280_pressure;Samples;Min_cycle;Max_cycle;Signal;HPM_P1;HPM_P2
2022/03/30 00:01:20;;;;;;;23.90;19.98;;;;;;;12.75;100.00;98136.25;4996266;28;20231;-77
2022/03/30 00:03:47;;;;;;;28.48;19.70;;;;;;;12.53;100.00;98137.34;4996436;28;20195;-78
2022/03/30 00:06:15;;;;;;;24.98;20.55;;;;;;;12.20;100.00;98139.34;4995995;28;20217;-78
2022/03/30 00:08:43;;;;;;;28.33;20.65;;;;;;;12.02;100.00;98135.56;4996380;28;20200;-78
2022/03/30 00:11:10;;;;;;;26.20;21.15;;;;;;;11.94;100.00;98132.66;4996280;28;20207;-78
2022/03/30 00:13:37;;;;;;;26.02;22.08;;;;;;;12.11;100.00;98134.75;4995741;28;20203;-78
2022/03/30 00:16:05;;;;;;;27.10;21.08;;;;;;;12.38;100.00;98122.53;4995941;28;20200;-77
2022/03/30 00:18:32;;;;;;;26.08;21.88;;;;;;;12.37;100.00;98124.38;4995964;28;20555;-79
2022/03/30 00:20:58;;;;;;;32.30;22.67;;;;;;;12.13;100.00;98119.28;4995488;28;20300;-77
2022/03/30 00:23:27;;;;;;;26.65;20.10;;;;;;;11.98;100.00;98132.25;4995721;28;20203;-78
2022/03/30 00:25:53;;;;;;;29.80;21.35;;;;;;;12.15;100.00;98121.84;4995808;28;20218;-78
2022/03/30 00:28:20;;;;;;;31.88;21.85;;;;;;;12.31;100.00;98114.97;4996025;28;20206;-79
2022/03/30 00:30:46;;;;;;;31.38;21.27;;;;;;;12.42;100.00;98118.56;4995656;28;20196;-78
2022/03/30 00:33:13;;;;;;;28.45;20.63;;;;;;;12.42;100.00;98111.31;4995630;28;20200;-78
2022/03/30 00:35:40;;;;;;;30.52;21.58;;;;;;;12.14;100.00;98104.78;4995557;28;20196;-77
2022/03/30 00:38:06;;;;;;;30.00;21.63;;;;;;;11.89;100.00;98103.41;4996060;28;20196;-78
2022/03/30 00:40:34;;;;;;;27.40;23.58;;;;;;;11.73;100.00;98111.94;4996169;28;20277;-77
2022/03/30 00:43:01;;;;;;;28.08;21.90;;;;;;;11.80;100.00;98107.75;4996321;28;20282;-76
2022/03/30 00:45:27;;;;;;;29.13;21.83;;;;;;;11.99;100.00;98101.63;4995986;28;20302;-77
2022/03/30 00:47:54;;;;;;;26.13;21.48;;;;;;;12.23;100.00;98097.72;4995608;28;20195;-77
2022/03/30 00:50:23;;;;;;;31.05;22.15;;;;;;;12.26;100.00;98090.22;4995435;28;20187;-78
2022/03/30 00:52:55;;;;;;;29.67;22.42;;;;;;;12.39;100.00;98095.41;4995873;28;20604;-78
2022/03/30 00:55:22;;;;;;;27.83;20.83;;;;;;;12.42;100.00;98094.28;4996042;28;20192;-78
2022/03/30 00:57:52;;;;;;;27.20;21.48;;;;;;;12.41;100.00;98097.94;4995580;28;20210;-77
2022/03/30 01:00:19;;;;;;;30.40;22.35;;;;;;;12.40;100.00;98080.91;4976757;28;20189;-76
2022/03/30 01:02:49;;;;;;;29.98;22.17;;;;;;;12.34;100.00;98086.00;4994875;28;20240;-78
2022/03/30 01:05:16;;;;;;;28.42;20.33;;;;;;;12.23;100.00;98084.25;4994914;28;20212;-77
2022/03/30 01:07:44;;;;;;;29.30;21.10;;;;;;;12.24;100.00;98077.88;4995328;28;20192;-78
2022/03/30 01:10:12;;;;;;;24.30;20.70;;;;;;;12.31;100.00;98087.13;4994961;28;20545;-78
2022/03/30 01:12:39;;;;;;;30.35;20.65;;;;;;;12.14;100.00;98075.13;4995237;28;20553;-76
2022/03/30 01:15:09;;;;;;;27.40;21.23;;;;;;;12.09;100.00;98072.81;4994924;28;20195;-78
2022/03/30 01:17:37;;;;;;;30.42;22.45;;;;;;;11.92;100.00;98060.00;4994742;28;20226;-78
2022/03/30 01:20:04;;;;;;;30.35;22.35;;;;;;;11.68;100.00;98058.41;4994919;28;20192;-78
2022/03/30 01:22:33;;;;;;;30.20;22.42;;;;;;;11.62;100.00;98068.88;4994990;28;20210;-78
2022/03/30 01:25:00;;;;;;;29.77;22.80;;;;;;;11.62;100.00;98053.59;4995331;28;20242;-78
2022/03/30 01:27:27;;;;;;;36.55;23.52;;;;;;;11.58;100.00;98053.97;4995004;28;20258;-78
2022/03/30 01:32:38;;;;;;;32.88;24.45;;;;;;;11.62;100.00;98040.09;4994709;28;20203;-78
2022/03/30 01:35:06;;;;;;;32.53;23.75;;;;;;;11.81;100.00;98039.34;4995008;28;20226;-77
2022/03/30 01:37:34;;;;;;;28.33;24.38;;;;;;;11.83;100.00;98033.81;4994696;28;20231;-77
2022/03/30 01:40:04;;;;;;;29.17;23.10;;;;;;;11.96;100.00;98030.91;4994896;28;20615;-78
2022/03/30 01:42:31;;;;;;;28.52;23.63;;;;;;;12.19;100.00;98021.63;4994847;28;20645;-78
2022/03/30 01:44:59;;;;;;;33.08;23.33;;;;;;;12.22;100.00;98021.34;4994280;28;20198;-79
2022/03/30 01:47:26;;;;;;;29.80;23.92;;;;;;;12.25;100.00;98020.19;4994855;28;20202;-76
2022/03/30 01:49:53;;;;;;;28.80;24.30;;;;;;;12.23;100.00;98017.66;4994449;28;20195;-77
2022/03/30 01:52:19;;;;;;;35.42;26.20;;;;;;;11.97;100.00;98019.13;4994295;28;20227;-77
2022/03/30 01:54:48;;;;;;;30.60;25.45;;;;;;;12.00;100.00;98016.16;4994764;28;20234;-77
2022/03/30 01:57:15;;;;;;;29.85;24.48;;;;;;;11.98;100.00;98016.28;4994686;28;20187;-78
2022/03/30 01:59:43;;;;;;;32.55;24.38;;;;;;;11.97;100.00;98021.84;4994110;28;20191;-78
2022/03/30 02:02:11;;;;;;;29.90;25.55;;;;;;;11.92;100.00;98016.84;4993871;28;20575;-78
2022/03/30 02:04:37;;;;;;;34.20;25.35;;;;;;;11.88;100.00;98018.09;4994381;28;20192;-78
2022/03/30 02:07:06;;;;;;;34.15;27.38;;;;;;;11.75;100.00;98001.28;4993931;28;20208;-78
2022/03/30 02:09:33;;;;;;;32.63;25.30;;;;;;;12.04;100.00;98004.09;4994061;28;20203;-78
2022/03/30 02:12:01;;;;;;;36.22;26.80;;;;;;;11.95;100.00;97996.84;4993920;28;20199;-78
2022/03/30 02:14:27;;;;;;;36.38;26.98;;;;;;;11.76;100.00;97990.34;4993465;28;20188;-78
2022/03/30 02:16:54;;;;;;;34.40;25.02;;;;;;;11.82;100.00;97992.50;4993491;28;20202;-78
2022/03/30 02:19:21;;;;;;;33.72;25.52;;;;;;;11.66;100.00;97982.22;4993755;28;20195;-77
2022/03/30 02:21:47;;;;;;;36.03;27.02;;;;;;;11.46;100.00;97988.50;4993582;28;20563;-78
2022/03/30 02:24:14;;;;;;;35.90;27.25;;;;;;;11.44;100.00;97990.47;4994524;28;20235;-78
2022/03/30 02:26:40;;;;;;;34.33;26.88;;;;;;;11.68;100.00;97992.88;4994184;28;20237;-78
2022/03/30 02:29:08;;;;;;;35.97;27.60;;;;;;;11.63;100.00;97987.88;4993697;28;20195;-77
2022/03/30 02:31:35;;;;;;;36.50;27.45;;;;;;;11.56;100.00;97985.88;4993595;28;20188;-78
2022/03/30 02:34:02;;;;;;;35.70;28.27;;;;;;;11.53;100.00;97978.88;4993472;28;20210;-78
2022/03/30 02:36:28;;;;;;;33.80;27.00;;;;;;;11.60;100.00;97982.78;4993547;28;20245;-77
2022/03/30 02:38:55;;;;;;;36.40;28.45;;;;;;;11.94;100.00;97974.41;4993627;28;20202;-78
2022/03/30 02:41:22;;;;;;;38.17;29.08;;;;;;;11.74;100.00;97970.75;4993681;28;20187;-78
2022/03/30 02:43:48;;;;;;;37.80;27.00;;;;;;;11.90;100.00;97972.97;4993389;28;20544;-78
2022/03/30 02:46:16;;;;;;;31.95;27.58;;;;;;;12.00;100.00;97981.94;4993886;28;20207;-77
2022/03/30 02:48:43;;;;;;;35.17;27.40;;;;;;;12.25;100.00;97975.19;4993546;28;20205;-77
2022/03/30 02:51:09;;;;;;;32.55;26.05;;;;;;;12.11;100.00;97972.88;4993693;28;20544;-78
2022/03/30 02:53:36;;;;;;;31.02;25.63;;;;;;;12.02;100.00;97968.31;4993270;28;20191;-76
2022/03/30 02:56:04;;;;;;;34.97;26.83;;;;;;;12.07;100.00;97971.44;4993693;28;20179;-76
2022/03/30 02:58:31;;;;;;;31.45;27.67;;;;;;;11.99;100.00;97964.06;4992869;28;20195;-78
2022/03/30 03:00:58;;;;;;;34.45;26.90;;;;;;;12.00;100.00;97959.50;4992885;28;20187;-77
2022/03/30 03:03:26;;;;;;;35.60;28.00;;;;;;;12.01;100.00;97958.53;4992910;28;20645;-77
2022/03/30 03:05:53;;;;;;;35.55;25.58;;;;;;;11.83;100.00;97953.75;4992820;28;20237;-77
2022/03/30 03:08:20;;;;;;;35.60;27.60;;;;;;;11.76;100.00;97952.63;4993011;28;20192;-78
2022/03/30 03:10:48;;;;;;;35.45;26.85;;;;;;;11.59;100.00;97942.47;4992644;28;20220;-78
2022/03/30 03:13:16;;;;;;;35.67;28.38;;;;;;;11.60;100.00;97945.03;4993469;28;20191;-78
2022/03/30 03:15:44;;;;;;;39.28;29.73;;;;;;;11.71;100.00;97943.22;4993081;28;20183;-78
2022/03/30 03:18:10;;;;;;;42.35;29.58;;;;;;;11.93;100.00;97943.03;4992823;28;20555;-78
2022/03/30 03:20:42;;;;;;;38.15;29.13;;;;;;;11.61;100.00;97929.72;4992661;28;20187;-78
2022/03/30 03:23:10;;;;;;;35.75;28.73;;;;;;;11.55;100.00;97932.94;4992672;28;20207;-78
2022/03/30 03:25:37;;;;;;;36.25;29.40;;;;;;;11.79;100.00;97932.59;4992593;28;20196;-78
2022/03/30 03:28:05;;;;;;;38.55;28.15;;;;;;;11.54;100.00;97931.25;4993033;28;20290;-79
2022/03/30 03:30:32;;;;;;;38.30;31.02;;;;;;;11.36;100.00;97931.03;4993232;28;20274;-77
2022/03/30 03:32:59;;;;;;;43.42;30.35;;;;;;;11.32;100.00;97926.88;4992663;28;20722;-78
2022/03/30 03:35:26;;;;;;;38.33;28.08;;;;;;;11.51;100.00;97926.09;4992696;28;20193;-78
2022/03/30 03:37:54;;;;;;;36.63;29.52;;;;;;;11.48;100.00;97909.22;4992327;28;20650;-78
2022/03/30 03:40:21;;;;;;;41.53;26.92;;;;;;;11.48;100.00;97917.31;4993135;28;20193;-77
2022/03/30 03:42:48;;;;;;;42.75;30.00;;;;;;;11.60;100.00;97909.13;4992576;28;20543;-76
2022/03/30 03:45:16;;;;;;;38.67;29.73;;;;;;;11.79;100.00;97909.19;4992514;28;20250;-78
2022/03/30 03:47:42;;;;;;;34.50;25.95;;;;;;;11.65;100.00;97899.66;4992767;28;20320;-78
2022/03/30 03:50:11;;;;;;;35.08;26.20;;;;;;;11.71;100.00;97905.47;4991914;28;20227;-79
2022/03/30 03:52:38;;;;;;;38.22;27.15;;;;;;;11.81;100.00;97901.81;4993052;28;20548;-78
2022/03/30 03:55:07;;;;;;;33.88;26.60;;;;;;;11.80;100.00;97900.13;4991904;28;20199;-79
2022/03/30 03:57:35;;;;;;;36.40;25.80;;;;;;;11.96;100.00;97909.53;4992766;28;20186;-77
2022/03/30 04:00:02;;;;;;;34.30;26.35;;;;;;;12.12;100.00;97901.78;4992699;28;20199;-78
2022/03/30 04:02:29;;;;;;;30.33;23.90;;;;;;;12.20;100.00;97901.06;4992541;28;20701;-78
2022/03/30 04:04:55;;;;;;;38.88;24.92;;;;;;;11.99;100.00;97904.72;4992199;28;20199;-77
2022/03/30 04:07:23;;;;;;;31.40;24.55;;;;;;;11.89;100.00;97899.31;4991678;28;20208;-77
2022/03/30 04:09:51;;;;;;;36.00;25.10;;;;;;;11.66;100.00;97892.41;4992587;28;20219;-78
2022/03/30 04:12:18;;;;;;;34.47;25.10;;;;;;;11.78;100.00;97894.00;4992853;28;20191;-78
2022/03/30 04:14:45;;;;;;;35.47;25.45;;;;;;;11.70;100.00;97888.44;4992912;28;20949;-78
2022/03/30 04:17:12;;;;;;;34.10;25.85;;;;;;;11.63;100.00;97887.28;4993125;28;20199;-77
2022/03/30 04:19:39;;;;;;;31.30;25.63;;;;;;;11.50;100.00;97884.00;4992472;28;20195;-76
2022/03/30 04:22:05;;;;;;;33.75;26.73;;;;;;;11.59;100.00;97886.72;4991783;28;20210;-76
2022/03/30 04:24:32;;;;;;;38.00;26.63;;;;;;;11.35;100.00;97880.81;4992055;28;20201;-78
2022/03/30 04:26:59;;;;;;;31.88;25.88;;;;;;;11.42;100.00;97885.53;4992155;28;20207;-78
2022/03/30 04:29:27;;;;;;;33.17;25.23;;;;;;;11.34;100.00;97879.13;4992338;28;20282;-78
2022/03/30 04:31:53;;;;;;;33.55;25.63;;;;;;;11.44;100.00;97875.47;4992469;28;20697;-78
2022/03/30 04:34:20;;;;;;;35.88;24.80;;;;;;;11.53;100.00;97886.41;4992205;28;20600;-78
2022/03/30 04:36:46;;;;;;;31.92;24.70;;;;;;;11.73;100.00;97877.38;4992799;28;20210;-78
2022/03/30 04:39:13;;;;;;;36.85;24.75;;;;;;;11.70;100.00;97874.97;4995156;28;20200;-78
2022/03/30 04:41:39;;;;;;;33.40;25.27;;;;;;;11.71;100.00;97882.06;4995430;28;20192;-78
2022/03/30 04:44:07;;;;;;;30.27;24.55;;;;;;;11.38;100.00;97883.25;4995243;28;20195;-78
2022/03/30 04:46:35;;;;;;;29.98;25.83;;;;;;;11.37;100.00;97879.69;4995562;28;20317;-78
2022/03/30 04:49:01;;;;;;;32.20;25.65;;;;;;;11.33;100.00;97874.69;4995411;28;20191;-78
2022/03/30 04:51:29;;;;;;;31.02;24.20;;;;;;;11.50;100.00;97878.59;4995453;28;20187;-78
2022/03/30 04:53:56;;;;;;;30.45;24.17;;;;;;;11.58;100.00;97878.78;4994717;28;20199;-78
2022/03/30 04:56:22;;;;;;;31.00;25.00;;;;;;;11.51;100.00;97883.00;4995544;28;20218;-78
2022/03/30 04:58:50;;;;;;;35.63;25.58;;;;;;;11.27;100.00;97878.81;4994462;28;20196;-78
2022/03/30 05:01:17;;;;;;;36.55;25.20;;;;;;;11.27;100.00;97881.50;4994768;28;20227;-77
2022/03/30 05:03:44;;;;;;;33.30;25.00;;;;;;;11.31;100.00;97877.53;4995171;28;20213;-76
2022/03/30 05:06:11;;;;;;;36.75;26.42;;;;;;;11.22;100.00;97879.22;4995138;28;20194;-78
2022/03/30 05:08:38;;;;;;;41.20;30.25;;;;;;;11.34;100.00;97881.81;4994480;28;20654;-78
2022/03/30 05:11:04;;;;;;;34.95;26.85;;;;;;;11.47;100.00;97875.19;4995617;28;20591;-77
2022/03/30 05:13:31;;;;;;;37.80;27.73;;;;;;;11.33;100.00;97878.28;4995386;28;20191;-76
2022/03/30 05:15:57;;;;;;;44.67;28.95;;;;;;;11.13;100.00;97879.19;4995266;28;20203;-76
2022/03/30 05:18:24;;;;;;;44.17;32.15;;;;;;;11.11;100.00;97867.69;4995063;28;20180;-78
2022/03/30 05:20:53;;;;;;;43.50;31.10;;;;;;;10.92;100.00;97873.81;4994977;28;20210;-78
2022/03/30 05:23:19;;;;;;;41.17;29.63;;;;;;;10.92;100.00;97872.00;4994828;28;20301;-78
2022/03/30 05:25:46;;;;;;;45.17;31.92;;;;;;;11.02;100.00;97867.50;4994622;28;20276;-78
2022/03/30 05:28:12;;;;;;;44.05;32.35;;;;;;;11.06;100.00;97870.78;4994079;28;20210;-77
2022/03/30 05:30:39;;;;;;;43.80;31.95;;;;;;;11.04;100.00;97875.44;4994258;28;20202;-78
2022/03/30 05:33:06;;;;;;;41.83;32.17;;;;;;;11.07;100.00;97870.63;4994129;28;20290;-78
2022/03/30 05:35:32;;;;;;;45.75;35.03;;;;;;;11.05;100.00;97880.66;4994276;28;20187;-78
2022/03/30 05:38:00;;;;;;;46.22;33.05;;;;;;;11.04;100.00;97878.97;4994828;28;20518;-77
2022/03/30 05:40:27;;;;;;;45.35;32.60;;;;;;;11.11;100.00;97878.44;4994153;28;20187;-79
2022/03/30 05:42:54;;;;;;;49.05;34.17;;;;;;;10.99;100.00;97873.16;4994394;28;20188;-77
2022/03/30 05:45:21;;;;;;;51.70;34.92;;;;;;;11.13;100.00;97871.09;4994718;28;20570;-77
2022/03/30 05:47:48;;;;;;;47.38;33.85;;;;;;;11.10;100.00;97880.25;4987449;28;20207;-79
2022/03/30 05:50:14;;;;;;;45.13;33.63;;;;;;;10.90;100.00;97873.94;4993057;28;20203;-77
2022/03/30 05:52:41;;;;;;;50.42;33.38;;;;;;;10.88;100.00;97875.94;4993677;28;20199;-79
2022/03/30 05:55:10;;;;;;;47.53;33.17;;;;;;;10.90;100.00;97875.78;4994211;28;20215;-77
2022/03/30 05:57:36;;;;;;;52.75;37.22;;;;;;;11.02;100.00;97877.41;4994030;28;20199;-76
2022/03/30 06:00:06;;;;;;;49.95;32.97;;;;;;;11.05;100.00;97877.13;4994309;28;20199;-78
2022/03/30 06:02:33;;;;;;;49.05;34.00;;;;;;;10.99;100.00;97881.22;4993887;28;20336;-77
2022/03/30 06:04:59;;;;;;;50.60;34.10;;;;;;;10.82;100.00;97879.13;4993304;28;20210;-79
2022/03/30 06:07:26;;;;;;;49.72;33.53;;;;;;;10.85;100.00;97874.34;4994412;28;20244;-78
2022/03/30 06:09:52;;;;;;;50.05;35.35;;;;;;;11.05;100.00;97877.97;4993775;28;20278;-77
2022/03/30 06:12:20;;;;;;;45.97;33.28;;;;;;;11.02;100.00;97880.94;4993460;28;20217;-78
2022/03/30 06:14:47;;;;;;;46.45;33.30;;;;;;;10.95;100.00;97882.47;4993820;28;20195;-77
2022/03/30 06:17:17;;;;;;;45.67;33.35;;;;;;;10.97;100.00;97879.66;4993841;28;20211;-77
2022/03/30 06:19:46;;;;;;;47.67;34.90;;;;;;;10.84;100.00;97885.25;4992984;28;20199;-78
2022/03/30 06:22:13;;;;;;;52.40;33.85;;;;;;;10.69;100.00;97894.63;4993682;28;20214;-77
2022/03/30 06:24:41;;;;;;;50.83;34.78;;;;;;;10.88;100.00;97893.91;4993451;28;20217;-78
2022/03/30 06:27:09;;;;;;;51.25;31.75;;;;;;;10.85;100.00;97889.63;4993449;28;20218;-79
2022/03/30 06:29:39;;;;;;;49.75;33.33;;;;;;;10.80;100.00;97891.88;4993056;28;20191;-78
2022/03/30 06:32:07;;;;;;;49.80;32.65;;;;;;;10.94;100.00;97894.22;4979277;28;20192;-78
2022/03/30 06:34:33;;;;;;;45.92;33.13;;;;;;;10.96;100.00;97897.63;4975960;28;20602;-78
2022/03/30 06:37:00;;;;;;;48.05;33.25;;;;;;;10.90;100.00;97898.19;4993807;28;20559;-76
2022/03/30 06:39:27;;;;;;;44.67;32.08;;;;;;;10.75;100.00;97894.97;4992242;28;20214;-78
2022/03/30 06:41:53;;;;;;;50.53;34.42;;;;;;;11.02;100.00;97888.19;4994046;28;20575;-77
2022/03/30 06:44:20;;;;;;;47.97;34.40;;;;;;;10.95;100.00;97897.78;4993756;28;20500;-78
2022/03/30 06:46:48;;;;;;;48.92;34.05;;;;;;;11.13;100.00;97895.34;4993970;28;20214;-78
2022/03/30 06:49:14;;;;;;;48.92;35.08;;;;;;;11.14;100.00;97891.63;4993225;28;20192;-77
2022/03/30 06:51:41;;;;;;;45.60;32.83;;;;;;;11.14;100.00;97887.09;4993352;28;20207;-79
2022/03/30 06:54:08;;;;;;;46.90;34.13;;;;;;;11.19;100.00;97882.19;4988073;28;20192;-77
2022/03/30 06:56:34;;;;;;;47.70;32.08;;;;;;;11.26;100.00;97882.47;4974144;28;20207;-78
2022/03/30 06:59:01;;;;;;;45.58;31.02;;;;;;;11.20;100.00;97883.88;4984768;28;20257;-78
2022/03/30 07:01:28;;;;;;;45.13;31.40;;;;;;;11.15;100.00;97887.97;4992686;28;20242;-76
2022/03/30 07:03:56;;;;;;;44.40;31.75;;;;;;;11.18;100.00;97885.00;4993128;28;20192;-78
2022/03/30 07:06:22;;;;;;;45.97;29.50;;;;;;;11.29;100.00;97879.53;4990434;28;20290;-79
2022/03/30 07:11:34;;;;;;;40.42;29.52;;;;;;;11.59;100.00;97884.00;4992540;28;20222;-78
2022/03/30 07:14:00;;;;;;;45.60;32.08;;;;;;;11.65;100.00;97880.78;4993592;28;20567;-78
2022/03/30 07:16:27;;;;;;;47.20;31.95;;;;;;;11.41;100.00;97883.81;5007022;28;20745;-78
2022/03/30 07:18:55;;;;;;;43.35;30.05;;;;;;;11.42;100.00;97879.28;5013060;28;20183;-79
2022/03/30 07:21:23;;;;;;;42.08;29.05;;;;;;;11.53;100.00;97887.25;5012900;28;20213;-79
2022/03/30 07:23:49;;;;;;;45.10;30.98;;;;;;;11.52;100.00;97887.41;5013061;28;20630;-80
2022/03/30 07:26:16;;;;;;;42.13;30.60;;;;;;;11.38;100.00;97889.47;5012485;28;20276;-79
2022/03/30 07:28:43;;;;;;;43.00;29.15;;;;;;;11.39;100.00;97884.94;5013167;28;20663;-80
2022/03/30 07:31:09;;;;;;;39.35;29.23;;;;;;;11.75;100.00;97888.88;5012344;28;20273;-78
2022/03/30 07:33:36;;;;;;;40.47;28.83;;;;;;;11.97;100.00;97895.06;5012492;28;20209;-79
2022/03/30 07:36:03;;;;;;;40.72;28.90;;;;;;;11.85;100.00;97892.47;5012143;28;20197;-79
2022/03/30 07:38:31;;;;;;;37.28;28.02;;;;;;;12.02;100.00;97899.03;5008479;28;20179;-77
2022/03/30 07:41:00;;;;;;;41.88;31.15;;;;;;;12.31;100.00;97890.97;5008361;28;20564;-80
2022/03/30 07:43:26;;;;;;;42.85;29.00;;;;;;;12.10;100.00;97896.50;5011962;28;20193;-78
2022/03/30 07:45:54;;;;;;;39.38;29.38;;;;;;;12.00;100.00;97894.78;5012365;28;20543;-77
2022/03/30 07:48:20;;;;;;;48.85;36.55;;;;;;;12.35;100.00;97898.81;4995746;28;20232;-78
2022/03/30 07:50:47;;;;;;;38.75;29.42;;;;;;;12.07;100.00;97899.50;4992686;28;20637;-76
2022/03/30 07:53:14;;;;;;;38.72;31.58;;;;;;;12.20;100.00;97899.19;4992609;28;20214;-77
2022/03/30 07:55:42;;;;;;;33.95;27.45;;;;;;;12.09;100.00;97894.78;4992717;28;20206;-78
2022/03/30 07:58:08;;;;;;;41.00;27.27;;;;;;;12.36;100.00;97900.50;4993603;28;20513;-80
2022/03/30 08:00:35;;;;;;;37.83;26.35;;;;;;;12.28;100.00;97898.53;4994422;28;20197;-77
2022/03/30 08:03:03;;;;;;;37.13;25.23;;;;;;;12.28;100.00;97898.53;5000018;28;20223;-77
2022/03/30 08:05:30;;;;;;;36.10;25.52;;;;;;;12.02;100.00;97898.19;4991970;28;20199;-81
2022/03/30 08:07:56;;;;;;;37.13;27.63;;;;;;;12.05;100.00;97897.91;5005385;28;20228;-80
2022/03/30 08:10:23;;;;;;;35.88;27.20;;;;;;;12.15;100.00;97898.78;5011330;28;20874;-79
2022/03/30 08:12:51;;;;;;;40.17;28.15;;;;;;;12.12;100.00;97903.59;4993604;28;20670;-79
2022/03/30 08:15:18;;;;;;;38.63;25.83;;;;;;;11.71;100.00;97905.47;4995185;28;20197;-80
2022/03/30 08:17:45;;;;;;;35.33;25.25;;;;;;;11.81;100.00;97903.66;4996083;28;20198;-81
2022/03/30 08:22:25;;;;;;;29.70;23.63;;;;;;;11.93;100.00;97907.13;4995140;28;20286;-77
2022/03/30 08:22:59;;;;;;;31.55;25.15;;;;;;;11.77;100.00;97911.16;4993931;28;20184;-78
2022/03/30 08:25:25;;;;;;;34.77;24.60;;;;;;;11.70;100.00;97910.00;4996083;28;20239;-78
2022/03/30 08:27:53;;;;;;;30.23;20.92;;;;;;;11.64;100.00;97911.41;5005564;28;20217;-76
2022/03/30 08:30:20;;;;;;;33.25;22.10;;;;;;;11.24;100.00;97906.03;5005697;28;20192;-78
2022/03/30 08:32:47;;;;;;;32.90;22.30;;;;;;;10.91;100.00;97910.66;4994937;28;20203;-77
2022/03/30 08:35:13;;;;;;;30.27;23.08;;;;;;;11.29;100.00;97911.84;4994897;28;20195;-78
2022/03/30 08:37:40;;;;;;;34.40;23.63;;;;;;;11.34;100.00;97917.69;4994794;28;20211;-78
2022/03/30 08:40:09;;;;;;;30.92;22.45;;;;;;;11.32;100.00;97908.88;4994667;28;20210;-78
2022/03/30 08:42:36;;;;;;;52.33;32.88;;;;;;;11.48;100.00;97914.59;4995453;28;20229;-77
2022/03/30 08:45:05;;;;;;;43.28;31.10;;;;;;;11.69;100.00;97914.56;4995027;28;20188;-78
2022/03/30 08:47:32;;;;;;;40.30;28.38;;;;;;;11.24;100.00;97917.66;4994521;28;20222;-78
2022/03/30 08:49:59;;;;;;;32.47;24.20;;;;;;;11.20;100.00;97915.34;4994841;28;20197;-76
2022/03/30 08:52:27;;;;;;;40.30;27.75;;;;;;;11.47;100.00;97917.47;4997555;28;20630;-77
2022/03/30 08:54:54;;;;;;;40.90;27.48;;;;;;;11.41;100.00;97916.16;4995447;28;20624;-77
2022/03/30 08:57:21;;;;;;;38.13;27.15;;;;;;;11.29;100.00;97922.63;4994999;28;20689;-78
2022/03/30 08:59:58;;;;;;;40.15;25.30;;;;;;;11.04;100.00;97929.31;4975700;28;20208;-77
2022/03/30 09:02:34;;;;;;;31.95;24.20;;;;;;;11.03;100.00;97925.75;4989782;28;20230;-78
2022/03/30 09:05:15;;;;;;;36.42;23.80;;;;;;;10.72;100.00;97938.31;4994772;28;20542;-77
2022/03/30 09:07:48;;;;;;;36.83;25.85;;;;;;;10.67;100.00;97939.66;5000121;28;20333;-82
2022/03/30 09:10:18;;;;;;;43.95;28.95;;;;;;;10.80;100.00;97943.88;4994136;28;20593;-81
2022/03/30 09:12:46;;;;;;;37.58;26.15;;;;;;;10.94;100.00;97937.28;4994269;28;20219;-81
2022/03/30 09:15:13;;;;;;;39.38;26.42;;;;;;;10.90;100.00;97943.97;4993773;28;20282;-81
2022/03/30 09:17:42;;;;;;;42.30;24.50;;;;;;;10.92;100.00;97951.88;4994239;28;20235;-80
2022/03/30 09:20:16;;;;;;;37.90;25.15;;;;;;;11.11;100.00;97940.41;4996519;28;20553;-82
2022/03/30 09:22:44;;;;;;;43.78;28.08;;;;;;;11.29;100.00;97944.19;4997686;28;20290;-83
2022/03/30 09:25:12;;;;;;;35.85;26.75;;;;;;;11.19;100.00;97940.56;4993878;28;20191;-81
2022/03/30 09:27:41;;;;;;;39.28;26.17;;;;;;;11.37;100.00;97932.72;4994405;28;20235;-80
2022/03/30 09:30:10;;;;;;;38.88;25.70;;;;;;;11.31;100.00;97936.81;4994515;28;20330;-79
2022/03/30 09:32:37;;;;;;;38.33;26.13;;;;;;;11.30;100.00;97942.34;4992976;28;20200;-81
2022/03/30 09:35:17;;;;;;;34.83;23.38;;;;;;;11.14;100.00;97945.50;4994866;28;20657;-80
2022/03/30 09:37:44;;;;;;;35.58;23.48;;;;;;;11.46;100.00;97948.94;4993606;28;20179;-81
2022/03/30 09:40:12;;;;;;;34.80;24.13;;;;;;;11.49;100.00;97942.44;4993968;28;20708;-81
2022/03/30 09:42:38;;;;;;;33.45;23.65;;;;;;;11.35;100.00;97953.56;4994104;28;20184;-81
2022/03/30 09:45:06;;;;;;;34.95;23.02;;;;;;;11.33;100.00;97948.31;4993770;28;20194;-81
2022/03/30 09:47:38;;;;;;;31.05;21.48;;;;;;;11.25;100.00;97934.66;4993921;28;20617;-78
2022/03/30 09:50:11;;;;;;;28.85;20.98;;;;;;;11.35;100.00;97937.38;4993146;28;20194;-78
2022/03/30 09:52:38;;;;;;;29.35;19.17;;;;;;;11.33;100.00;97936.66;4993364;28;20194;-76
2022/03/30 09:55:07;;;;;;;28.63;20.40;;;;;;;11.17;100.00;97939.84;4993428;28;20191;-76
2022/03/30 09:57:40;;;;;;;30.52;21.10;;;;;;;11.42;100.00;97936.72;4993742;28;20646;-77
2022/03/30 10:00:10;;;;;;;30.33;20.50;;;;;;;11.67;100.00;97931.88;4993849;28;20202;-77
2022/03/30 10:02:38;;;;;;;26.02;18.73;;;;;;;11.65;100.00;97934.69;4993303;28;20235;-78
2022/03/30 10:05:10;;;;;;;27.27;19.60;;;;;;;11.76;100.00;97925.66;4993720;28;20653;-76
2022/03/30 10:07:36;;;;;;;27.80;20.67;;;;;;;11.76;100.00;97931.03;4994512;28;20207;-78
2022/03/30 10:10:05;;;;;;;29.20;20.92;;;;;;;11.74;100.00;97922.22;5000022;28;20221;-77
2022/03/30 10:12:32;;;;;;;28.45;20.52;;;;;;;11.81;100.00;97930.63;5014080;28;20206;-77
2022/03/30 10:15:00;;;;;;;26.98;20.15;;;;;;;11.68;100.00;97920.94;4994448;28;20639;-78
2022/03/30 10:17:29;;;;;;;27.65;18.75;;;;;;;11.62;100.00;97928.69;4993772;28;20204;-78
2022/03/30 10:19:57;;;;;;;24.42;17.48;;;;;;;10.93;100.00;97932.91;4993095;28;20734;-79
2022/03/30 10:22:57;;;;;;;24.65;17.30;;;;;;;11.19;100.00;97927.09;4994085;28;20289;-78
2022/03/30 10:25:41;;;;;;;25.20;17.30;;;;;;;10.93;100.00;97937.44;4993787;28;20684;-77
2022/03/30 10:28:17;;;;;;;22.65;16.38;;;;;;;10.53;100.00;97930.06;4991314;28;20249;-79
2022/03/30 10:30:44;;;;;;;25.05;18.20;;;;;;;10.44;100.00;97929.84;4993538;28;20231;-77
2022/03/30 10:33:12;;;;;;;25.45;17.92;;;;;;;10.31;100.00;97933.72;4992976;28;20210;-79
2022/03/30 10:35:40;;;;;;;26.50;18.30;;;;;;;10.58;100.00;97938.59;4992575;28;20252;-78
2022/03/30 10:38:09;;;;;;;24.90;17.50;;;;;;;10.44;100.00;97931.69;4992811;28;20184;-77
2022/03/30 10:40:38;;;;;;;26.55;18.88;;;;;;;10.26;100.00;97933.22;4993279;28;20209;-78
2022/03/30 10:43:06;;;;;;;26.98;19.42;;;;;;;10.78;100.00;97934.22;4993142;28;20270;-78
2022/03/30 10:45:40;;;;;;;28.42;19.42;;;;;;;10.48;100.00;97933.16;4992533;28;20685;-76
2022/03/30 10:48:10;;;;;;;26.33;18.42;;;;;;;10.61;100.00;97936.53;4991141;28;20559;-77
2022/03/30 10:50:41;;;;;;;24.50;17.75;;;;;;;10.85;100.00;97928.19;4984849;28;20203;-76
2022/03/30 10:53:55;;;;;;;26.30;18.00;;;;;;;11.22;100.00;97925.00;4992061;28;20230;-77
2022/03/30 10:56:36;;;;;;;26.40;17.60;;;;;;;11.35;100.00;97924.78;4991455;28;20196;-78
2022/03/30 10:59:16;;;;;;;25.30;19.10;;;;;;;11.66;100.00;97924.75;4991183;28;20618;-77
2022/03/30 11:01:43;;;;;;;21.55;16.25;;;;;;;12.09;100.00;97926.31;4993527;28;20269;-80
2022/03/30 11:04:25;;;;;;;23.38;17.88;;;;;;;12.04;100.00;97923.19;4993387;28;20226;-80
2022/03/30 11:07:40;;;;;;;23.08;16.45;;;;;;;11.50;100.00;97914.47;4992388;28;20210;-80
2022/03/30 11:10:47;;;;;;;23.00;16.85;;;;;;;11.35;100.00;97911.31;4993815;28;20306;-83
2022/03/30 11:13:24;;;;;;;26.30;18.23;;;;;;;11.09;100.00;97907.34;4961703;28;20231;-80
2022/03/30 11:16:11;;;;;;;23.48;17.73;;;;;;;11.25;100.00;97910.41;4992398;28;20195;-80
2022/03/30 11:18:54;;;;;;;26.33;17.73;;;;;;;10.88;100.00;97908.22;4992161;28;20209;-79
2022/03/30 11:21:21;;;;;;;26.77;17.83;;;;;;;10.83;100.00;97907.75;4992009;28;20213;-80